sensor_id;sensor_type;location;lat;lon;timestamp;temperature;humidity
6879;DHT22;3478;51.462;7.338;2024-03-23T00:52:48;8.00;99.90
6879;DHT22;3478;51.462;7.338;2024-03-23T00:57:50;7.80;99.90
6879;DHT22;3478;51.462;7.338;2024-03-23T01:02:52;7.90;99.90
6879;DHT22;3478;51.462;7.338;2024-03-23T01:07:55;7.90;99.90
6879;DHT22;3478;51.462;7.338;2024-03-23T01:12:57;7.90;99.90
6879;DHT22;3478;51.462;7.338;2024-03-23T01:17:58;7.80;99.90
6879;DHT22;3478;51.462;7.338;2024-03-23T01:23:01;7.70;99.90
6879;DHT22;3478;51.462;7.338;2024-03-23T01:28:04;7.60;99.90
6879;DHT22;3478;51.462;7.338;2024-03-23T01:33:06;7.60;99.90
6879;DHT22;3478;51.462;7.338;2024-03-23T01:38:09;7.60;99.90
6879;DHT22;3478;51.462;7.338;2024-03-23T01:43:11;7.50;99.90
6879;DHT22;3478;51.462;7.338;2024-03-23T01:48:13;7.50;99.90
6879;DHT22;3478;51.462;7.338;2024-03-23T01:53:16;7.50;99.90
6879;DHT22;3478;51.462;7.338;2024-03-23T01:58:20;7.40;99.90
6879;DHT22;3478;51.462;7.338;2024-03-23T02:03:22;7.40;99.90
6879;DHT22;3478;51.462;7.338;2024-03-23T02:08:25;7.20;99.90
6879;DHT22;3478;51.462;7.338;2024-03-23T02:13:27;7.10;99.90
6879;DHT22;3478;51.462;7.338;2024-03-23T02:18:29;7.20;99.90
6879;DHT22;3478;51.462;7.338;2024-03-23T02:23:32;7.00;99.90
6879;DHT22;3478;51.462;7.338;2024-03-23T02:28:34;6.90;99.90
6879;DHT22;3478;51.462;7.338;2024-03-23T02:33:36;7.10;99.90
6879;DHT22;3478;51.462;7.338;2024-03-23T02:38:40;7.20;99.90
6879;DHT22;3478;51.462;7.338;2024-03-23T02:43:41;7.20;99.90
6879;DHT22;3478;51.462;7.338;2024-03-23T02:48:43;7.20;99.90
6879;DHT22;3478;51.462;7.338;2024-03-23T02:53:46;7.20;99.90
6879;DHT22;3478;51.462;7.338;2024-03-23T02:58:48;7.00;99.90
6879;DHT22;3478;51.462;7.338;2024-03-23T03:03:50;7.00;99.90
6879;DHT22;3478;51.462;7.338;2024-03-23T03:08:53;6.90;99.90
6879;DHT22;3478;51.462;7.338;2024-03-23T03:13:55;7.00;99.90
6879;DHT22;3478;51.462;7.338;2024-03-23T03:18:57;6.90;99.90
6879;DHT22;3478;51.462;7.338;2024-03-23T03:24:01;6.90;99.90
6879;DHT22;3478;51.462;7.338;2024-03-23T03:29:03;6.90;99.90
6879;DHT22;3478;51.462;7.338;2024-03-23T03:34:05;7.00;99.90
6879;DHT22;3478;51.462;7.338;2024-03-23T03:39:08;7.00;99.90
6879;DHT22;3478;51.462;7.338;2024-03-23T03:44:10;7.00;99.90
6879;DHT22;3478;51.462;7.338;2024-03-23T03:49:12;7.00;99.90
6879;DHT22;3478;51.462;7.338;2024-03-23T03:54:15;6.90;99.90
6879;DHT22;3478;51.462;7.338;2024-03-23T03:59:17;6.70;99.90
6879;DHT22;3478;51.462;7.338;2024-03-23T04:04:21;6.60;99.90
6879;DHT22;3478;51.462;7.338;2024-03-23T04:09:24;6.70;99.90
6879;DHT22;3478;51.462;7.338;2024-03-23T04:14:26;6.80;99.90
6879;DHT22;3478;51.462;7.338;2024-03-23T04:19:28;6.90;99.90
6879;DHT22;3478;51.462;7.338;2024-03-23T04:24:31;6.90;99.90
6879;DHT22;3478;51.462;7.338;2024-03-23T04:29:33;6.90;99.90
6879;DHT22;3478;51.462;7.338;2024-03-23T04:34:35;6.90;99.90
6879;DHT22;3478;51.462;7.338;2024-03-23T04:39:38;6.80;99.90
6879;DHT22;3478;51.462;7.338;2024-03-23T04:44:40;6.70;99.90
6879;DHT22;3478;51.462;7.338;2024-03-23T04:49:42;6.60;99.90
6879;DHT22;3478;51.462;7.338;2024-03-23T04:54:46;6.60;99.90
6879;DHT22;3478;51.462;7.338;2024-03-23T04:59:48;6.60;99.90
6879;DHT22;3478;51.462;7.338;2024-03-23T05:04:50;6.60;99.90
6879;DHT22;3478;51.462;7.338;2024-03-23T05:09:53;6.50;99.90
6879;DHT22;3478;51.462;7.338;2024-03-23T05:14:55;6.50;99.90
6879;DHT22;3478;51.462;7.338;2024-03-23T05:19:57;6.50;99.90
6879;DHT22;3478;51.462;7.338;2024-03-23T05:25:00;6.40;99.90
6879;DHT22;3478;51.462;7.338;2024-03-23T05:30:06;6.50;99.90
6879;DHT22;3478;51.462;7.338;2024-03-23T05:35:09;6.40;99.90
6879;DHT22;3478;51.462;7.338;2024-03-23T05:40:13;6.50;99.90
6879;DHT22;3478;51.462;7.338;2024-03-23T05:45:16;6.40;99.90
6879;DHT22;3478;51.462;7.338;2024-03-23T05:50:19;6.40;99.90
6879;DHT22;3478;51.462;7.338;2024-03-23T05:55:22;6.10;99.90
6879;DHT22;3478;51.462;7.338;2024-03-23T06:00:24;6.00;99.90
6879;DHT22;3478;51.462;7.338;2024-03-23T06:05:27;6.10;99.90
6879;DHT22;3478;51.462;7.338;2024-03-23T06:10:30;6.20;99.90
6879;DHT22;3478;51.462;7.338;2024-03-23T06:15:32;6.20;99.90
6879;DHT22;3478;51.462;7.338;2024-03-23T06:20:38;6.10;99.90
6879;DHT22;3478;51.462;7.338;2024-03-23T06:25:42;6.10;99.90
6879;DHT22;3478;51.462;7.338;2024-03-23T06:30:44;6.20;99.90
6879;DHT22;3478;51.462;7.338;2024-03-23T06:35:50;6.10;99.90
6879;DHT22;3478;51.462;7.338;2024-03-23T06:40:54;6.30;99.90
6879;DHT22;3478;51.462;7.338;2024-03-23T06:45:56;6.30;99.90
6879;DHT22;3478;51.462;7.338;2024-03-23T06:50:59;6.40;99.90
6879;DHT22;3478;51.462;7.338;2024-03-23T06:56:02;6.50;99.90
6879;DHT22;3478;51.462;7.338;2024-03-23T07:01:04;6.60;99.90
6879;DHT22;3478;51.462;7.338;2024-03-23T07:06:06;6.60;99.90
6879;DHT22;3478;51.462;7.338;2024-03-23T07:11:09;6.50;99.90
6879;DHT22;3478;51.462;7.338;2024-03-23T07:16:11;6.40;99.90
6879;DHT22;3478;51.462;7.338;2024-03-23T07:21:15;6.50;99.90
6879;DHT22;3478;51.462;7.338;2024-03-23T07:26:19;6.60;99.90
6879;DHT22;3478;51.462;7.338;2024-03-23T07:31:21;6.50;99.90
6879;DHT22;3478;51.462;7.338;2024-03-23T07:36:23;6.70;99.90
6879;DHT22;3478;51.462;7.338;2024-03-23T07:41:26;6.80;99.90
6879;DHT22;3478;51.462;7.338;2024-03-23T07:46:29;7.00;99.90
6879;DHT22;3478;51.462;7.338;2024-03-23T07:51:31;7.10;99.90
6879;DHT22;3478;51.462;7.338;2024-03-23T07:56:34;7.20;99.90
6879;DHT22;3478;51.462;7.338;2024-03-23T08:01:36;7.20;99.90
6879;DHT22;3478;51.462;7.338;2024-03-23T08:06:38;7.20;99.90
6879;DHT22;3478;51.462;7.338;2024-03-23T08:11:41;7.40;99.90
6879;DHT22;3478;51.462;7.338;2024-03-23T08:16:46;7.20;99.90
6879;DHT22;3478;51.462;7.338;2024-03-23T08:21:49;7.40;99.90
6879;DHT22;3478;51.462;7.338;2024-03-23T08:26:54;7.60;99.90
6879;DHT22;3478;51.462;7.338;2024-03-23T08:31:56;7.80;99.90
6879;DHT22;3478;51.462;7.338;2024-03-23T08:36:58;8.00;99.90
6879;DHT22;3478;51.462;7.338;2024-03-23T08:42:02;8.30;99.90
6879;DHT22;3478;51.462;7.338;2024-03-23T08:47:04;8.10;99.90
6879;DHT22;3478;51.462;7.338;2024-03-23T08:52:06;8.20;99.90
6879;DHT22;3478;51.462;7.338;2024-03-23T08:57:10;8.20;99.90
6879;DHT22;3478;51.462;7.338;2024-03-23T09:02:15;8.20;99.90
6879;DHT22;3478;51.462;7.338;2024-03-23T09:07:17;8.10;99.90
6879;DHT22;3478;51.462;7.338;2024-03-23T09:12:20;8.30;99.90
6879;DHT22;3478;51.462;7.338;2024-03-23T09:17:22;8.70;99.90
6879;DHT22;3478;51.462;7.338;2024-03-23T09:22:24;8.60;99.90
6879;DHT22;3478;51.462;7.338;2024-03-23T09:27:27;8.20;99.90
6879;DHT22;3478;51.462;7.338;2024-03-23T09:32:29;8.00;99.90
6879;DHT22;3478;51.462;7.338;2024-03-23T09:37:31;7.60;99.90
6879;DHT22;3478;51.462;7.338;2024-03-23T09:42:35;7.40;99.90
6879;DHT22;3478;51.462;7.338;2024-03-23T09:47:37;7.50;99.90
6879;DHT22;3478;51.462;7.338;2024-03-23T09:52:39;7.60;99.90
6879;DHT22;3478;51.462;7.338;2024-03-23T09:57:43;7.50;99.90
6879;DHT22;3478;51.462;7.338;2024-03-23T10:02:45;7.90;99.90
6879;DHT22;3478;51.462;7.338;2024-03-23T10:07:49;8.40;99.90
6879;DHT22;3478;51.462;7.338;2024-03-23T10:12:52;8.90;99.90
6879;DHT22;3478;51.462;7.338;2024-03-23T10:17:54;9.40;99.90
6879;DHT22;3478;51.462;7.338;2024-03-23T10:22:56;9.20;99.90
6879;DHT22;3478;51.462;7.338;2024-03-23T10:28:00;9.40;99.90
6879;DHT22;3478;51.462;7.338;2024-03-23T10:33:09;9.40;99.90
6879;DHT22;3478;51.462;7.338;2024-03-23T10:38:11;9.10;99.90
6879;DHT22;3478;51.462;7.338;2024-03-23T10:43:15;9.90;99.90
6879;DHT22;3478;51.462;7.338;2024-03-23T10:48:17;10.70;99.90
6879;DHT22;3478;51.462;7.338;2024-03-23T10:53:22;11.00;99.90
6879;DHT22;3478;51.462;7.338;2024-03-23T10:58:30;10.80;98.10
6879;DHT22;3478;51.462;7.338;2024-03-23T11:03:33;11.20;97.60
6879;DHT22;3478;51.462;7.338;2024-03-23T11:08:37;10.80;94.30
6879;DHT22;3478;51.462;7.338;2024-03-23T11:13:41;10.20;96.80
6879;DHT22;3478;51.462;7.338;2024-03-23T11:18:43;7.40;99.90
6879;DHT22;3478;51.462;7.338;2024-03-23T11:23:45;5.30;99.90
6879;DHT22;3478;51.462;7.338;2024-03-23T11:28:49;4.90;99.90
6879;DHT22;3478;51.462;7.338;2024-03-23T11:34:03;5.00;99.90
6879;DHT22;3478;51.462;7.338;2024-03-23T11:39:13;5.60;99.90
6879;DHT22;3478;51.462;7.338;2024-03-23T11:44:22;7.30;99.90
6879;DHT22;3478;51.462;7.338;2024-03-23T11:49:25;9.20;99.90
6879;DHT22;3478;51.462;7.338;2024-03-23T11:54:27;10.80;99.90
6879;DHT22;3478;51.462;7.338;2024-03-23T11:59:35;11.60;99.90
6879;DHT22;3478;51.462;7.338;2024-03-23T12:04:38;12.60;99.90
6879;DHT22;3478;51.462;7.338;2024-03-23T12:09:40;12.70;99.90
6879;DHT22;3478;51.462;7.338;2024-03-23T12:14:44;12.50;95.80
6879;DHT22;3478;51.462;7.338;2024-03-23T12:19:46;12.50;95.10
6879;DHT22;3478;51.462;7.338;2024-03-23T12:24:49;12.00;94.00
6879;DHT22;3478;51.462;7.338;2024-03-23T12:29:52;11.60;94.30
6879;DHT22;3478;51.462;7.338;2024-03-23T12:34:54;12.20;92.30
6879;DHT22;3478;51.462;7.338;2024-03-23T12:39:56;10.70;94.20
6879;DHT22;3478;51.462;7.338;2024-03-23T12:44:59;9.70;97.50
6879;DHT22;3478;51.462;7.338;2024-03-23T12:50:02;8.90;99.90
6879;DHT22;3478;51.462;7.338;2024-03-23T12:55:04;8.60;99.90
6879;DHT22;3478;51.462;7.338;2024-03-23T13:00:09;10.30;99.90
6879;DHT22;3478;51.462;7.338;2024-03-23T13:05:12;12.50;95.90
6879;DHT22;3478;51.462;7.338;2024-03-23T13:10:14;13.40;92.10
6879;DHT22;3478;51.462;7.338;2024-03-23T13:15:18;14.40;88.60
6879;DHT22;3478;51.462;7.338;2024-03-23T13:20:21;14.70;81.60
6879;DHT22;3478;51.462;7.338;2024-03-23T13:25:23;13.10;87.30
6879;DHT22;3478;51.462;7.338;2024-03-23T13:30:26;11.50;91.70
6879;DHT22;3478;51.462;7.338;2024-03-23T13:35:28;9.50;99.00
6879;DHT22;3478;51.462;7.338;2024-03-23T13:40:30;8.20;99.90
6879;DHT22;3478;51.462;7.338;2024-03-23T13:45:34;8.60;99.90
6879;DHT22;3478;51.462;7.338;2024-03-23T13:50:37;11.00;99.90
6879;DHT22;3478;51.462;7.338;2024-03-23T13:55:46;12.70;98.30
6879;DHT22;3478;51.462;7.338;2024-03-23T14:00:50;11.50;93.00
6879;DHT22;3478;51.462;7.338;2024-03-23T14:05:52;9.60;97.30
6879;DHT22;3478;51.462;7.338;2024-03-23T14:10:56;10.60;99.90
6879;DHT22;3478;51.462;7.338;2024-03-23T14:16:00;12.90;95.60
6879;DHT22;3478;51.462;7.338;2024-03-23T14:21:03;11.60;95.10
6879;DHT22;3478;51.462;7.338;2024-03-23T14:26:05;11.10;95.00
6879;DHT22;3478;51.462;7.338;2024-03-23T14:31:08;11.60;94.20
6879;DHT22;3478;51.462;7.338;2024-03-23T14:36:12;13.50;80.90
6879;DHT22;3478;51.462;7.338;2024-03-23T14:41:14;14.20;76.60
6879;DHT22;3478;51.462;7.338;2024-03-23T14:46:17;14.80;72.40
6879;DHT22;3478;51.462;7.338;2024-03-23T14:51:20;13.40;71.40
6879;DHT22;3478;51.462;7.338;2024-03-23T14:56:22;11.90;78.20
6879;DHT22;3478;51.462;7.338;2024-03-23T15:01:26;11.00;76.10
6879;DHT22;3478;51.462;7.338;2024-03-23T15:06:28;13.10;70.70
6879;DHT22;3478;51.462;7.338;2024-03-23T15:11:32;14.40;68.50
6879;DHT22;3478;51.462;7.338;2024-03-23T15:16:36;15.30;58.80
6879;DHT22;3478;51.462;7.338;2024-03-23T15:21:38;15.00;58.60
6879;DHT22;3478;51.462;7.338;2024-03-23T15:26:40;14.00;59.90
6879;DHT22;3478;51.462;7.338;2024-03-23T15:31:44;11.30;68.40
6879;DHT22;3478;51.462;7.338;2024-03-23T15:36:47;11.30;72.00
6879;DHT22;3478;51.462;7.338;2024-03-23T15:41:50;10.40;75.60
6879;DHT22;3478;51.462;7.338;2024-03-23T15:46:53;10.50;81.10
6879;DHT22;3478;51.462;7.338;2024-03-23T15:51:55;11.90;81.30
6879;DHT22;3478;51.462;7.338;2024-03-23T15:56:58;13.50;73.50
6879;DHT22;3478;51.462;7.338;2024-03-23T16:02:01;13.70;70.00
6879;DHT22;3478;51.462;7.338;2024-03-23T16:07:03;13.40;67.90
6879;DHT22;3478;51.462;7.338;2024-03-23T16:12:05;12.30;72.50
6879;DHT22;3478;51.462;7.338;2024-03-23T16:17:09;12.20;73.60
6879;DHT22;3478;51.462;7.338;2024-03-23T16:22:11;13.20;70.10
6879;DHT22;3478;51.462;7.338;2024-03-23T16:27:13;13.70;68.00
6879;DHT22;3478;51.462;7.338;2024-03-23T16:32:16;14.30;69.00
6879;DHT22;3478;51.462;7.338;2024-03-23T16:37:19;14.60;63.00
6879;DHT22;3478;51.462;7.338;2024-03-23T16:42:21;13.50;65.50
6879;DHT22;3478;51.462;7.338;2024-03-23T16:47:25;14.00;61.70
6879;DHT22;3478;51.462;7.338;2024-03-23T16:52:28;14.10;62.40
6879;DHT22;3478;51.462;7.338;2024-03-23T16:57:30;13.60;63.40
6879;DHT22;3478;51.462;7.338;2024-03-23T17:02:33;12.60;66.10
6879;DHT22;3478;51.462;7.338;2024-03-23T17:07:38;11.30;69.40
6879;DHT22;3478;51.462;7.338;2024-03-23T17:12:40;9.70;76.60
6879;DHT22;3478;51.462;7.338;2024-03-23T17:17:44;9.10;80.90
6879;DHT22;3478;51.462;7.338;2024-03-23T17:22:52;8.70;85.70
6879;DHT22;3478;51.462;7.338;2024-03-23T17:27:54;8.40;83.60
6879;DHT22;3478;51.462;7.338;2024-03-23T17:32:58;8.10;86.70
6879;DHT22;3478;51.462;7.338;2024-03-23T17:38:00;8.00;89.60
6879;DHT22;3478;51.462;7.338;2024-03-23T17:43:05;7.80;90.80
6879;DHT22;3478;51.462;7.338;2024-03-23T17:48:12;7.80;92.50
6879;DHT22;3478;51.462;7.338;2024-03-23T17:53:16;7.40;98.10
6879;DHT22;3478;51.462;7.338;2024-03-23T17:58:20;7.10;99.90
6879;DHT22;3478;51.462;7.338;2024-03-23T18:03:23;6.90;99.90
6879;DHT22;3478;51.462;7.338;2024-03-23T18:08:25;6.70;99.90
6879;DHT22;3478;51.462;7.338;2024-03-23T18:13:27;6.70;99.90
6879;DHT22;3478;51.462;7.338;2024-03-23T18:18:30;6.70;99.90
6879;DHT22;3478;51.462;7.338;2024-03-23T18:23:32;6.70;99.90
6879;DHT22;3478;51.462;7.338;2024-03-23T18:28:34;6.60;99.90
6879;DHT22;3478;51.462;7.338;2024-03-23T18:33:39;6.50;99.90
6879;DHT22;3478;51.462;7.338;2024-03-23T18:38:41;6.40;99.90
6879;DHT22;3478;51.462;7.338;2024-03-23T18:43:46;6.30;99.90
6879;DHT22;3478;51.462;7.338;2024-03-23T18:48:50;6.30;99.90
6879;DHT22;3478;51.462;7.338;2024-03-23T18:53:52;6.10;99.90
6879;DHT22;3478;51.462;7.338;2024-03-23T18:58:55;6.10;99.90
6879;DHT22;3478;51.462;7.338;2024-03-23T19:03:58;6.10;99.90
6879;DHT22;3478;51.462;7.338;2024-03-23T19:09:00;6.10;99.90
6879;DHT22;3478;51.462;7.338;2024-03-23T19:14:02;6.10;99.90
6879;DHT22;3478;51.462;7.338;2024-03-23T19:19:05;6.00;99.90
6879;DHT22;3478;51.462;7.338;2024-03-23T19:24:07;6.00;99.90
6879;DHT22;3478;51.462;7.338;2024-03-23T19:29:09;6.00;99.90
6879;DHT22;3478;51.462;7.338;2024-03-23T19:34:12;5.90;99.90
6879;DHT22;3478;51.462;7.338;2024-03-23T19:39:14;5.90;99.90
6879;DHT22;3478;51.462;7.338;2024-03-23T19:44:15;5.80;99.90
6879;DHT22;3478;51.462;7.338;2024-03-23T19:49:19;5.70;99.90
6879;DHT22;3478;51.462;7.338;2024-03-23T19:54:22;5.80;99.90
6879;DHT22;3478;51.462;7.338;2024-03-23T19:59:24;5.80;99.90
6879;DHT22;3478;51.462;7.338;2024-03-23T20:04:27;5.80;99.90
6879;DHT22;3478;51.462;7.338;2024-03-23T20:09:29;5.80;99.90
6879;DHT22;3478;51.462;7.338;2024-03-23T20:14:31;5.80;99.90
6879;DHT22;3478;51.462;7.338;2024-03-23T20:19:35;5.80;99.90
6879;DHT22;3478;51.462;7.338;2024-03-23T20:24:36;5.70;99.90
6879;DHT22;3478;51.462;7.338;2024-03-23T20:29:38;5.40;99.90
6879;DHT22;3478;51.462;7.338;2024-03-23T20:34:41;5.30;99.90
6879;DHT22;3478;51.462;7.338;2024-03-23T20:39:43;5.40;99.90
6879;DHT22;3478;51.462;7.338;2024-03-23T20:44:45;5.50;99.90
6879;DHT22;3478;51.462;7.338;2024-03-23T20:49:49;5.60;99.90
6879;DHT22;3478;51.462;7.338;2024-03-23T20:54:51;5.60;99.90
6879;DHT22;3478;51.462;7.338;2024-03-23T20:59:53;5.50;99.90
6879;DHT22;3478;51.462;7.338;2024-03-23T21:04:58;5.60;99.90
6879;DHT22;3478;51.462;7.338;2024-03-23T21:09:59;5.70;99.90
6879;DHT22;3478;51.462;7.338;2024-03-23T21:15:02;5.60;99.90
6879;DHT22;3478;51.462;7.338;2024-03-23T21:20:07;5.50;99.90
6879;DHT22;3478;51.462;7.338;2024-03-23T21:25:10;5.40;99.90
6879;DHT22;3478;51.462;7.338;2024-03-23T21:30:12;5.10;99.90
6879;DHT22;3478;51.462;7.338;2024-03-23T21:35:16;5.00;99.90
6879;DHT22;3478;51.462;7.338;2024-03-23T21:40:20;4.90;99.90
6879;DHT22;3478;51.462;7.338;2024-03-23T21:45:22;4.90;99.90
6879;DHT22;3478;51.462;7.338;2024-03-23T21:50:25;5.10;1.00
6879;DHT22;3478;51.462;7.338;2024-03-23T21:55:27;4.90;1.00
6879;DHT22;3478;51.462;7.338;2024-03-23T22:00:29;5.00;1.00
6879;DHT22;3478;51.462;7.338;2024-03-23T22:05:32;5.00;1.00
6879;DHT22;3478;51.462;7.338;2024-03-23T22:10:35;5.00;1.00
6879;DHT22;3478;51.462;7.338;2024-03-23T22:15:40;4.90;1.00
6879;DHT22;3478;51.462;7.338;2024-03-23T22:20:44;4.90;1.00
6879;DHT22;3478;51.462;7.338;2024-03-23T22:25:47;4.80;1.00
6879;DHT22;3478;51.462;7.338;2024-03-23T22:30:55;4.90;1.00
6879;DHT22;3478;51.462;7.338;2024-03-23T22:35:59;4.90;1.00
6879;DHT22;3478;51.462;7.338;2024-03-23T22:41:02;4.90;1.00
6879;DHT22;3478;51.462;7.338;2024-03-23T22:46:05;5.00;1.00
6879;DHT22;3478;51.462;7.338;2024-03-23T22:51:12;5.00;1.00
6879;DHT22;3478;51.462;7.338;2024-03-23T22:56:14;5.10;5.10
6879;DHT22;3478;51.462;7.338;2024-03-23T23:01:17;5.20;1.00
6879;DHT22;3478;51.462;7.338;2024-03-23T23:06:21;5.20;1.00
6879;DHT22;3478;51.462;7.338;2024-03-23T23:11:23;5.20;1.00
6879;DHT22;3478;51.462;7.338;2024-03-23T23:16:24;5.20;1.00
6879;DHT22;3478;51.462;7.338;2024-03-23T23:21:28;5.10;1.00
6879;DHT22;3478;51.462;7.338;2024-03-23T23:26:29;5.10;1.00
6879;DHT22;3478;51.462;7.338;2024-03-23T23:31:31;5.10;1.00
6879;DHT22;3478;51.462;7.338;2024-03-23T23:36:34;5.10;1.00
6879;DHT22;3478;51.462;7.338;2024-03-23T23:41:37;5.20;1.00
6879;DHT22;3478;51.462;7.338;2024-03-23T23:46:38;5.20;1.00
6879;DHT22;3478;51.462;7.338;2024-03-23T23:51:41;5.20;1.00
6879;DHT22;3478;51.462;7.338;2024-03-23T23:56:44;5.20;1.00
